sensor_id;sensor_type;location;lat;lon;timestamp;P1;durP1;ratioP1;P2;durP2;ratioP2
39882;SDS011;55824;52.220;21.040;2023-01-26T00:00:50;12.18;;;10.65;;
39882;SDS011;55824;52.220;21.040;2023-01-26T00:03:16;11.82;;;10.25;;
39882;SDS011;55824;52.220;21.040;2023-01-26T00:05:43;11.50;;;9.90;;
39882;SDS011;55824;52.220;21.040;2023-01-26T00:08:09;10.40;;;9.35;;
39882;SDS011;55824;52.220;21.040;2023-01-26T00:10:36;11.82;;;10.63;;
39882;SDS011;55824;52.220;21.040;2023-01-26T00:13:02;10.90;;;9.73;;
39882;SDS011;55824;52.220;21.040;2023-01-26T00:15:30;11.27;;;10.05;;
39882;SDS011;55824;52.220;21.040;2023-01-26T00:17:57;10.98;;;9.70;;
39882;SDS011;55824;52.220;21.040;2023-01-26T00:20:23;10.63;;;9.18;;
39882;SDS011;55824;52.220;21.040;2023-01-26T00:22:49;11.43;;;9.80;;
39882;SDS011;55824;52.220;21.040;2023-01-26T00:25:15;11.65;;;9.57;;
39882;SDS011;55824;52.220;21.040;2023-01-26T00:27:41;10.50;;;9.32;;
39882;SDS011;55824;52.220;21.040;2023-01-26T00:30:07;10.02;;;9.02;;
39882;SDS011;55824;52.220;21.040;2023-01-26T00:32:34;10.70;;;9.18;;
39882;SDS011;55824;52.220;21.040;2023-01-26T00:35:00;10.73;;;9.65;;
39882;SDS011;55824;52.220;21.040;2023-01-26T00:37:26;11.18;;;9.82;;
39882;SDS011;55824;52.220;21.040;2023-01-26T00:39:52;11.20;;;9.55;;
39882;SDS011;55824;52.220;21.040;2023-01-26T00:42:18;10.63;;;9.52;;
39882;SDS011;55824;52.220;21.040;2023-01-26T00:44:45;11.18;;;9.63;;
39882;SDS011;55824;52.220;21.040;2023-01-26T00:47:11;11.07;;;9.98;;
39882;SDS011;55824;52.220;21.040;2023-01-26T00:49:38;11.43;;;10.23;;
39882;SDS011;55824;52.220;21.040;2023-01-26T00:52:04;11.73;;;10.52;;
39882;SDS011;55824;52.220;21.040;2023-01-26T00:54:30;11.52;;;10.27;;
39882;SDS011;55824;52.220;21.040;2023-01-26T00:56:56;11.68;;;10.40;;
39882;SDS011;55824;52.220;21.040;2023-01-26T00:59:22;11.63;;;9.82;;
39882;SDS011;55824;52.220;21.040;2023-01-26T01:01:48;11.57;;;10.25;;
39882;SDS011;55824;52.220;21.040;2023-01-26T01:04:14;10.70;;;9.60;;
39882;SDS011;55824;52.220;21.040;2023-01-26T01:06:41;11.50;;;10.02;;
39882;SDS011;55824;52.220;21.040;2023-01-26T01:09:07;11.88;;;10.13;;
39882;SDS011;55824;52.220;21.040;2023-01-26T01:11:33;11.77;;;9.82;;
39882;SDS011;55824;52.220;21.040;2023-01-26T01:13:59;11.32;;;10.13;;
39882;SDS011;55824;52.220;21.040;2023-01-26T01:16:25;12.15;;;10.75;;
39882;SDS011;55824;52.220;21.040;2023-01-26T01:18:53;11.40;;;9.98;;
39882;SDS011;55824;52.220;21.040;2023-01-26T01:21:19;11.95;;;10.38;;
39882;SDS011;55824;52.220;21.040;2023-01-26T01:23:45;10.68;;;9.27;;
39882;SDS011;55824;52.220;21.040;2023-01-26T01:26:12;12.15;;;9.90;;
39882;SDS011;55824;52.220;21.040;2023-01-26T01:28:38;11.70;;;10.23;;
39882;SDS011;55824;52.220;21.040;2023-01-26T01:31:04;11.85;;;9.93;;
39882;SDS011;55824;52.220;21.040;2023-01-26T01:33:30;11.45;;;9.45;;
39882;SDS011;55824;52.220;21.040;2023-01-26T01:35:57;10.98;;;9.77;;
39882;SDS011;55824;52.220;21.040;2023-01-26T01:38:23;11.50;;;10.30;;
39882;SDS011;55824;52.220;21.040;2023-01-26T01:40:49;12.68;;;11.05;;
39882;SDS011;55824;52.220;21.040;2023-01-26T01:43:15;12.35;;;10.63;;
39882;SDS011;55824;52.220;21.040;2023-01-26T01:45:42;13.02;;;10.52;;
39882;SDS011;55824;52.220;21.040;2023-01-26T01:48:14;12.00;;;10.75;;
39882;SDS011;55824;52.220;21.040;2023-01-26T01:50:42;12.10;;;10.00;;
39882;SDS011;55824;52.220;21.040;2023-01-26T01:53:10;11.35;;;10.07;;
39882;SDS011;55824;52.220;21.040;2023-01-26T01:55:36;11.07;;;9.82;;
39882;SDS011;55824;52.220;21.040;2023-01-26T01:58:03;11.00;;;9.82;;
39882;SDS011;55824;52.220;21.040;2023-01-26T02:00:29;11.95;;;10.27;;
39882;SDS011;55824;52.220;21.040;2023-01-26T02:02:59;13.07;;;11.68;;
39882;SDS011;55824;52.220;21.040;2023-01-26T02:08:29;10.52;;;9.43;;
39882;SDS011;55824;52.220;21.040;2023-01-26T02:10:57;12.98;;;11.32;;
39882;SDS011;55824;52.220;21.040;2023-01-26T02:13:24;12.60;;;10.43;;
39882;SDS011;55824;52.220;21.040;2023-01-26T02:15:50;11.20;;;9.88;;
39882;SDS011;55824;52.220;21.040;2023-01-26T02:18:16;11.23;;;9.75;;
39882;SDS011;55824;52.220;21.040;2023-01-26T02:28:20;12.52;;;9.98;;
39882;SDS011;55824;52.220;21.040;2023-01-26T02:30:46;11.85;;;10.48;;
39882;SDS011;55824;52.220;21.040;2023-01-26T02:33:19;11.90;;;10.10;;
39882;SDS011;55824;52.220;21.040;2023-01-26T02:35:45;11.65;;;10.45;;
39882;SDS011;55824;52.220;21.040;2023-01-26T02:38:11;12.65;;;10.52;;
39882;SDS011;55824;52.220;21.040;2023-01-26T02:40:39;12.20;;;10.90;;
39882;SDS011;55824;52.220;21.040;2023-01-26T02:43:08;11.50;;;10.30;;
39882;SDS011;55824;52.220;21.040;2023-01-26T02:45:34;12.57;;;10.60;;
39882;SDS011;55824;52.220;21.040;2023-01-26T02:48:00;11.10;;;9.90;;
39882;SDS011;55824;52.220;21.040;2023-01-26T02:50:30;12.98;;;10.13;;
39882;SDS011;55824;52.220;21.040;2023-01-26T02:52:56;11.50;;;10.23;;
39882;SDS011;55824;52.220;21.040;2023-01-26T02:55:22;10.82;;;9.73;;
39882;SDS011;55824;52.220;21.040;2023-01-26T02:58:10;12.35;;;10.77;;
39882;SDS011;55824;52.220;21.040;2023-01-26T03:00:36;11.55;;;10.35;;
39882;SDS011;55824;52.220;21.040;2023-01-26T03:03:03;11.95;;;10.30;;
39882;SDS011;55824;52.220;21.040;2023-01-26T03:05:32;12.27;;;10.88;;
39882;SDS011;55824;52.220;21.040;2023-01-26T03:07:58;13.55;;;10.93;;
39882;SDS011;55824;52.220;21.040;2023-01-26T03:10:25;12.13;;;10.23;;
39882;SDS011;55824;52.220;21.040;2023-01-26T03:12:51;11.13;;;9.77;;
39882;SDS011;55824;52.220;21.040;2023-01-26T03:15:17;12.85;;;10.60;;
39882;SDS011;55824;52.220;21.040;2023-01-26T03:18:07;11.13;;;9.93;;
39882;SDS011;55824;52.220;21.040;2023-01-26T03:20:52;12.40;;;10.48;;
39882;SDS011;55824;52.220;21.040;2023-01-26T03:23:38;12.18;;;10.52;;
39882;SDS011;55824;52.220;21.040;2023-01-26T03:26:22;11.45;;;10.15;;
39882;SDS011;55824;52.220;21.040;2023-01-26T03:29:07;10.82;;;9.68;;
39882;SDS011;55824;52.220;21.040;2023-01-26T03:31:33;11.93;;;10.13;;
39882;SDS011;55824;52.220;21.040;2023-01-26T03:33:59;11.90;;;10.23;;
39882;SDS011;55824;52.220;21.040;2023-01-26T03:36:25;12.00;;;10.45;;
39882;SDS011;55824;52.220;21.040;2023-01-26T03:38:51;11.38;;;10.18;;
39882;SDS011;55824;52.220;21.040;2023-01-26T03:41:17;12.63;;;10.95;;
39882;SDS011;55824;52.220;21.040;2023-01-26T03:44:01;11.95;;;10.55;;
39882;SDS011;55824;52.220;21.040;2023-01-26T03:46:46;11.02;;;9.93;;
39882;SDS011;55824;52.220;21.040;2023-01-26T03:49:30;12.25;;;10.48;;
39882;SDS011;55824;52.220;21.040;2023-01-26T03:52:14;14.50;;;11.65;;
39882;SDS011;55824;52.220;21.040;2023-01-26T03:54:59;11.45;;;10.25;;
39882;SDS011;55824;52.220;21.040;2023-01-26T03:57:43;11.63;;;10.25;;
39882;SDS011;55824;52.220;21.040;2023-01-26T04:00:10;11.90;;;10.63;;
39882;SDS011;55824;52.220;21.040;2023-01-26T04:02:39;12.48;;;11.15;;
39882;SDS011;55824;52.220;21.040;2023-01-26T04:05:23;11.15;;;10.02;;
39882;SDS011;55824;52.220;21.040;2023-01-26T04:08:08;11.60;;;10.40;;
39882;SDS011;55824;52.220;21.040;2023-01-26T04:10:53;11.75;;;10.25;;
39882;SDS011;55824;52.220;21.040;2023-01-26T04:13:20;11.60;;;10.38;;
39882;SDS011;55824;52.220;21.040;2023-01-26T04:16:05;11.43;;;10.18;;
39882;SDS011;55824;52.220;21.040;2023-01-26T04:18:50;11.32;;;10.15;;
39882;SDS011;55824;52.220;21.040;2023-01-26T04:21:34;11.85;;;9.77;;
39882;SDS011;55824;52.220;21.040;2023-01-26T04:24:02;10.80;;;9.52;;
39882;SDS011;55824;52.220;21.040;2023-01-26T04:26:33;11.52;;;10.32;;
39882;SDS011;55824;52.220;21.040;2023-01-26T04:29:03;11.00;;;9.90;;
39882;SDS011;55824;52.220;21.040;2023-01-26T04:33:55;12.20;;;10.05;;
39882;SDS011;55824;52.220;21.040;2023-01-26T04:36:21;11.20;;;9.93;;
39882;SDS011;55824;52.220;21.040;2023-01-26T04:38:47;12.10;;;10.30;;
39882;SDS011;55824;52.220;21.040;2023-01-26T04:41:13;11.20;;;10.00;;
39882;SDS011;55824;52.220;21.040;2023-01-26T04:43:39;11.35;;;9.80;;
39882;SDS011;55824;52.220;21.040;2023-01-26T04:46:06;10.82;;;9.63;;
39882;SDS011;55824;52.220;21.040;2023-01-26T04:48:32;11.38;;;10.02;;
39882;SDS011;55824;52.220;21.040;2023-01-26T04:50:59;10.02;;;8.98;;
39882;SDS011;55824;52.220;21.040;2023-01-26T04:53:25;12.20;;;10.55;;
39882;SDS011;55824;52.220;21.040;2023-01-26T04:55:52;11.25;;;10.05;;
39882;SDS011;55824;52.220;21.040;2023-01-26T04:58:18;11.75;;;10.52;;
39882;SDS011;55824;52.220;21.040;2023-01-26T05:00:49;10.82;;;9.65;;
39882;SDS011;55824;52.220;21.040;2023-01-26T05:03:15;10.80;;;9.43;;
39882;SDS011;55824;52.220;21.040;2023-01-26T05:05:41;11.45;;;9.50;;
39882;SDS011;55824;52.220;21.040;2023-01-26T05:08:07;11.18;;;9.98;;
39882;SDS011;55824;52.220;21.040;2023-01-26T05:10:33;10.63;;;9.57;;
39882;SDS011;55824;52.220;21.040;2023-01-26T05:12:59;12.02;;;10.20;;
39882;SDS011;55824;52.220;21.040;2023-01-26T05:15:24;11.77;;;10.40;;
39882;SDS011;55824;52.220;21.040;2023-01-26T05:17:50;11.57;;;10.38;;
39882;SDS011;55824;52.220;21.040;2023-01-26T05:20:16;12.18;;;10.88;;
39882;SDS011;55824;52.220;21.040;2023-01-26T05:22:42;11.27;;;9.52;;
39882;SDS011;55824;52.220;21.040;2023-01-26T05:25:09;10.45;;;9.35;;
39882;SDS011;55824;52.220;21.040;2023-01-26T05:27:34;12.27;;;10.02;;
39882;SDS011;55824;52.220;21.040;2023-01-26T05:30:01;11.75;;;10.23;;
39882;SDS011;55824;52.220;21.040;2023-01-26T05:32:27;12.77;;;10.65;;
39882;SDS011;55824;52.220;21.040;2023-01-26T05:34:54;12.48;;;10.75;;
39882;SDS011;55824;52.220;21.040;2023-01-26T05:37:20;11.13;;;9.93;;
39882;SDS011;55824;52.220;21.040;2023-01-26T05:39:46;10.75;;;9.65;;
39882;SDS011;55824;52.220;21.040;2023-01-26T05:42:12;12.93;;;10.48;;
39882;SDS011;55824;52.220;21.040;2023-01-26T05:44:38;10.73;;;9.55;;
39882;SDS011;55824;52.220;21.040;2023-01-26T05:47:04;11.48;;;10.27;;
39882;SDS011;55824;52.220;21.040;2023-01-26T05:49:30;10.55;;;9.52;;
39882;SDS011;55824;52.220;21.040;2023-01-26T05:51:57;12.80;;;10.85;;
39882;SDS011;55824;52.220;21.040;2023-01-26T05:54:23;11.00;;;9.82;;
39882;SDS011;55824;52.220;21.040;2023-01-26T05:56:49;11.82;;;10.60;;
39882;SDS011;55824;52.220;21.040;2023-01-26T05:59:17;13.52;;;11.27;;
39882;SDS011;55824;52.220;21.040;2023-01-26T06:01:43;11.43;;;9.65;;
39882;SDS011;55824;52.220;21.040;2023-01-26T06:04:09;10.95;;;9.40;;
39882;SDS011;55824;52.220;21.040;2023-01-26T06:06:35;10.70;;;9.60;;
39882;SDS011;55824;52.220;21.040;2023-01-26T06:09:01;11.43;;;10.10;;
39882;SDS011;55824;52.220;21.040;2023-01-26T06:11:27;12.80;;;10.57;;
39882;SDS011;55824;52.220;21.040;2023-01-26T06:13:53;11.20;;;9.68;;
39882;SDS011;55824;52.220;21.040;2023-01-26T06:16:19;10.88;;;9.77;;
39882;SDS011;55824;52.220;21.040;2023-01-26T06:18:48;12.60;;;10.70;;
39882;SDS011;55824;52.220;21.040;2023-01-26T06:21:14;11.60;;;10.10;;
39882;SDS011;55824;52.220;21.040;2023-01-26T06:23:40;10.88;;;9.77;;
39882;SDS011;55824;52.220;21.040;2023-01-26T06:26:07;13.95;;;10.30;;
39882;SDS011;55824;52.220;21.040;2023-01-26T06:28:33;11.63;;;10.25;;
39882;SDS011;55824;52.220;21.040;2023-01-26T06:31:03;13.15;;;10.20;;
39882;SDS011;55824;52.220;21.040;2023-01-26T06:33:33;12.68;;;10.20;;
39882;SDS011;55824;52.220;21.040;2023-01-26T06:36:06;13.73;;;11.65;;
39882;SDS011;55824;52.220;21.040;2023-01-26T06:38:33;13.25;;;10.35;;
39882;SDS011;55824;52.220;21.040;2023-01-26T06:41:00;12.35;;;9.88;;
39882;SDS011;55824;52.220;21.040;2023-01-26T06:43:27;13.48;;;10.63;;
39882;SDS011;55824;52.220;21.040;2023-01-26T06:45:57;11.75;;;10.15;;
39882;SDS011;55824;52.220;21.040;2023-01-26T06:50:49;13.00;;;10.23;;
39882;SDS011;55824;52.220;21.040;2023-01-26T06:53:29;12.75;;;10.55;;
39882;SDS011;55824;52.220;21.040;2023-01-26T06:55:55;11.00;;;9.90;;
39882;SDS011;55824;52.220;21.040;2023-01-26T06:58:21;12.40;;;10.05;;
39882;SDS011;55824;52.220;21.040;2023-01-26T07:00:47;11.63;;;10.27;;
39882;SDS011;55824;52.220;21.040;2023-01-26T07:03:13;13.40;;;10.63;;
39882;SDS011;55824;52.220;21.040;2023-01-26T07:05:39;10.43;;;9.32;;
39882;SDS011;55824;52.220;21.040;2023-01-26T07:08:05;11.95;;;10.68;;
39882;SDS011;55824;52.220;21.040;2023-01-26T07:10:33;11.52;;;10.27;;
39882;SDS011;55824;52.220;21.040;2023-01-26T07:12:59;11.93;;;10.20;;
39882;SDS011;55824;52.220;21.040;2023-01-26T07:15:24;11.88;;;10.20;;
39882;SDS011;55824;52.220;21.040;2023-01-26T07:17:50;12.07;;;10.77;;
39882;SDS011;55824;52.220;21.040;2023-01-26T07:20:16;12.43;;;10.23;;
39882;SDS011;55824;52.220;21.040;2023-01-26T07:22:42;11.40;;;9.77;;
39882;SDS011;55824;52.220;21.040;2023-01-26T07:25:08;11.63;;;10.00;;
39882;SDS011;55824;52.220;21.040;2023-01-26T07:27:34;12.68;;;10.27;;
39882;SDS011;55824;52.220;21.040;2023-01-26T07:30:00;11.85;;;10.25;;
39882;SDS011;55824;52.220;21.040;2023-01-26T07:32:26;11.75;;;10.27;;
39882;SDS011;55824;52.220;21.040;2023-01-26T07:34:52;12.32;;;10.13;;
39882;SDS011;55824;52.220;21.040;2023-01-26T07:37:18;12.27;;;10.88;;
39882;SDS011;55824;52.220;21.040;2023-01-26T07:39:44;12.05;;;10.73;;
39882;SDS011;55824;52.220;21.040;2023-01-26T07:42:10;12.27;;;10.50;;
39882;SDS011;55824;52.220;21.040;2023-01-26T07:44:37;13.68;;;11.10;;
39882;SDS011;55824;52.220;21.040;2023-01-26T07:47:03;13.48;;;10.18;;
39882;SDS011;55824;52.220;21.040;2023-01-26T07:49:29;11.00;;;9.50;;
39882;SDS011;55824;52.220;21.040;2023-01-26T07:51:55;14.57;;;10.52;;
39882;SDS011;55824;52.220;21.040;2023-01-26T07:54:21;27.83;;;10.38;;
39882;SDS011;55824;52.220;21.040;2023-01-26T07:56:51;13.55;;;10.05;;
39882;SDS011;55824;52.220;21.040;2023-01-26T07:59:18;12.25;;;9.90;;
39882;SDS011;55824;52.220;21.040;2023-01-26T08:01:44;12.77;;;10.02;;
39882;SDS011;55824;52.220;21.040;2023-01-26T08:04:10;11.50;;;9.50;;
39882;SDS011;55824;52.220;21.040;2023-01-26T08:06:36;16.77;;;10.07;;
39882;SDS011;55824;52.220;21.040;2023-01-26T08:09:02;16.00;;;10.07;;
39882;SDS011;55824;52.220;21.040;2023-01-26T08:11:28;13.40;;;10.25;;
39882;SDS011;55824;52.220;21.040;2023-01-26T08:13:54;11.63;;;9.38;;
39882;SDS011;55824;52.220;21.040;2023-01-26T08:16:21;12.02;;;9.38;;
39882;SDS011;55824;52.220;21.040;2023-01-26T08:18:47;11.98;;;9.63;;
39882;SDS011;55824;52.220;21.040;2023-01-26T08:21:14;11.68;;;9.60;;
39882;SDS011;55824;52.220;21.040;2023-01-26T08:23:40;10.95;;;9.27;;
39882;SDS011;55824;52.220;21.040;2023-01-26T08:26:07;10.57;;;9.05;;
39882;SDS011;55824;52.220;21.040;2023-01-26T08:28:34;10.07;;;8.68;;
39882;SDS011;55824;52.220;21.040;2023-01-26T08:31:13;13.18;;;9.50;;
39882;SDS011;55824;52.220;21.040;2023-01-26T08:33:42;9.80;;;8.38;;
39882;SDS011;55824;52.220;21.040;2023-01-26T08:36:12;10.55;;;9.15;;
39882;SDS011;55824;52.220;21.040;2023-01-26T08:38:39;11.88;;;8.50;;
39882;SDS011;55824;52.220;21.040;2023-01-26T08:41:05;10.38;;;8.45;;
39882;SDS011;55824;52.220;21.040;2023-01-26T08:43:31;11.35;;;8.25;;
39882;SDS011;55824;52.220;21.040;2023-01-26T08:45:57;12.82;;;9.30;;
39882;SDS011;55824;52.220;21.040;2023-01-26T08:48:24;10.75;;;8.55;;
39882;SDS011;55824;52.220;21.040;2023-01-26T08:50:53;11.43;;;8.65;;
39882;SDS011;55824;52.220;21.040;2023-01-26T08:53:19;8.90;;;8.00;;
39882;SDS011;55824;52.220;21.040;2023-01-26T08:55:45;9.68;;;7.97;;
39882;SDS011;55824;52.220;21.040;2023-01-26T08:58:11;9.30;;;8.25;;
39882;SDS011;55824;52.220;21.040;2023-01-26T09:00:37;10.07;;;8.30;;
39882;SDS011;55824;52.220;21.040;2023-01-26T09:03:03;10.98;;;8.15;;
39882;SDS011;55824;52.220;21.040;2023-01-26T09:05:31;10.20;;;8.10;;
39882;SDS011;55824;52.220;21.040;2023-01-26T09:07:57;10.95;;;8.18;;
39882;SDS011;55824;52.220;21.040;2023-01-26T09:10:23;10.05;;;8.05;;
39882;SDS011;55824;52.220;21.040;2023-01-26T09:12:49;9.75;;;7.72;;
39882;SDS011;55824;52.220;21.040;2023-01-26T09:15:15;9.75;;;7.70;;
39882;SDS011;55824;52.220;21.040;2023-01-26T09:17:41;9.73;;;7.93;;
39882;SDS011;55824;52.220;21.040;2023-01-26T09:20:10;9.32;;;7.18;;
39882;SDS011;55824;52.220;21.040;2023-01-26T09:22:36;13.93;;;7.38;;
39882;SDS011;55824;52.220;21.040;2023-01-26T09:25:03;8.88;;;7.30;;
39882;SDS011;55824;52.220;21.040;2023-01-26T09:27:29;8.55;;;6.90;;
39882;SDS011;55824;52.220;21.040;2023-01-26T09:29:55;8.77;;;6.78;;
39882;SDS011;55824;52.220;21.040;2023-01-26T09:32:21;9.45;;;7.40;;
39882;SDS011;55824;52.220;21.040;2023-01-26T09:34:47;9.13;;;7.68;;
39882;SDS011;55824;52.220;21.040;2023-01-26T09:37:14;10.05;;;6.60;;
39882;SDS011;55824;52.220;21.040;2023-01-26T09:39:40;9.10;;;6.80;;
39882;SDS011;55824;52.220;21.040;2023-01-26T09:44:41;10.65;;;6.95;;
39882;SDS011;55824;52.220;21.040;2023-01-26T09:47:23;7.75;;;6.57;;
39882;SDS011;55824;52.220;21.040;2023-01-26T09:49:55;9.23;;;6.70;;
39882;SDS011;55824;52.220;21.040;2023-01-26T09:52:28;10.57;;;6.35;;
39882;SDS011;55824;52.220;21.040;2023-01-26T09:54:59;8.38;;;6.40;;
39882;SDS011;55824;52.220;21.040;2023-01-26T09:59:53;7.82;;;5.93;;
39882;SDS011;55824;52.220;21.040;2023-01-26T10:04:50;6.95;;;6.00;;
39882;SDS011;55824;52.220;21.040;2023-01-26T10:07:17;8.93;;;6.05;;
39882;SDS011;55824;52.220;21.040;2023-01-26T10:09:44;8.10;;;6.68;;
39882;SDS011;55824;52.220;21.040;2023-01-26T10:17:30;7.35;;;6.03;;
39882;SDS011;55824;52.220;21.040;2023-01-26T10:20:22;6.95;;;5.57;;
39882;SDS011;55824;52.220;21.040;2023-01-26T10:22:43;7.97;;;6.43;;
39882;SDS011;55824;52.220;21.040;2023-01-26T10:25:12;8.30;;;5.70;;
39882;SDS011;55824;52.220;21.040;2023-01-26T10:27:39;8.35;;;5.95;;
39882;SDS011;55824;52.220;21.040;2023-01-26T10:30:07;7.35;;;5.47;;
39882;SDS011;55824;52.220;21.040;2023-01-26T10:32:36;8.48;;;6.13;;
39882;SDS011;55824;52.220;21.040;2023-01-26T10:35:03;6.60;;;5.63;;
39882;SDS011;55824;52.220;21.040;2023-01-26T10:37:29;6.95;;;5.80;;
39882;SDS011;55824;52.220;21.040;2023-01-26T10:42:28;8.43;;;5.80;;
39882;SDS011;55824;52.220;21.040;2023-01-26T10:44:54;17.05;;;5.78;;
39882;SDS011;55824;52.220;21.040;2023-01-26T10:47:20;12.57;;;5.32;;
39882;SDS011;55824;52.220;21.040;2023-01-26T10:49:46;10.13;;;6.13;;
39882;SDS011;55824;52.220;21.040;2023-01-26T10:54:42;7.60;;;5.70;;
39882;SDS011;55824;52.220;21.040;2023-01-26T10:57:20;6.57;;;4.93;;
39882;SDS011;55824;52.220;21.040;2023-01-26T10:59:49;9.98;;;6.80;;
39882;SDS011;55824;52.220;21.040;2023-01-26T11:07:35;9.63;;;5.47;;
39882;SDS011;55824;52.220;21.040;2023-01-26T11:12:47;8.55;;;5.68;;
39882;SDS011;55824;52.220;21.040;2023-01-26T11:17:54;7.57;;;5.15;;
39882;SDS011;55824;52.220;21.040;2023-01-26T11:25:43;8.02;;;5.18;;
39882;SDS011;55824;52.220;21.040;2023-01-26T11:28:35;6.80;;;5.28;;
39882;SDS011;55824;52.220;21.040;2023-01-26T11:31:20;7.75;;;5.35;;
39882;SDS011;55824;52.220;21.040;2023-01-26T11:36:22;8.93;;;5.72;;
39882;SDS011;55824;52.220;21.040;2023-01-26T11:44:24;8.25;;;5.32;;
39882;SDS011;55824;52.220;21.040;2023-01-26T11:49:27;6.10;;;5.00;;
39882;SDS011;55824;52.220;21.040;2023-01-26T11:59:59;7.45;;;4.55;;
39882;SDS011;55824;52.220;21.040;2023-01-26T12:02:31;6.45;;;5.15;;
39882;SDS011;55824;52.220;21.040;2023-01-26T12:05:47;7.03;;;5.18;;
39882;SDS011;55824;52.220;21.040;2023-01-26T12:07:50;6.22;;;4.80;;
39882;SDS011;55824;52.220;21.040;2023-01-26T12:13:36;6.32;;;4.75;;
39882;SDS011;55824;52.220;21.040;2023-01-26T12:15:44;6.15;;;4.97;;
39882;SDS011;55824;52.220;21.040;2023-01-26T12:18:22;6.35;;;4.75;;
39882;SDS011;55824;52.220;21.040;2023-01-26T12:21:10;7.20;;;5.13;;
39882;SDS011;55824;52.220;21.040;2023-01-26T12:23:50;10.18;;;5.70;;
39882;SDS011;55824;52.220;21.040;2023-01-26T12:26:19;6.80;;;4.93;;
39882;SDS011;55824;52.220;21.040;2023-01-26T12:28:47;6.68;;;5.30;;
39882;SDS011;55824;52.220;21.040;2023-01-26T12:33:43;7.85;;;5.18;;
39882;SDS011;55824;52.220;21.040;2023-01-26T12:42:00;7.95;;;5.38;;
39882;SDS011;55824;52.220;21.040;2023-01-26T12:44:09;6.30;;;5.03;;
39882;SDS011;55824;52.220;21.040;2023-01-26T12:46:40;5.72;;;4.57;;
39882;SDS011;55824;52.220;21.040;2023-01-26T12:49:18;7.97;;;5.23;;
39882;SDS011;55824;52.220;21.040;2023-01-26T12:51:49;8.30;;;5.70;;
39882;SDS011;55824;52.220;21.040;2023-01-26T12:56:51;8.95;;;5.05;;
39882;SDS011;55824;52.220;21.040;2023-01-26T12:59:21;7.25;;;5.22;;
39882;SDS011;55824;52.220;21.040;2023-01-26T13:01:49;7.72;;;5.30;;
39882;SDS011;55824;52.220;21.040;2023-01-26T13:04:16;7.60;;;5.85;;
39882;SDS011;55824;52.220;21.040;2023-01-26T13:06:42;8.00;;;5.88;;
39882;SDS011;55824;52.220;21.040;2023-01-26T13:09:19;8.93;;;5.47;;
39882;SDS011;55824;52.220;21.040;2023-01-26T13:16:52;8.35;;;5.55;;
39882;SDS011;55824;52.220;21.040;2023-01-26T13:22:06;7.72;;;5.47;;
39882;SDS011;55824;52.220;21.040;2023-01-26T13:24:49;8.00;;;5.57;;
39882;SDS011;55824;52.220;21.040;2023-01-26T13:30:02;6.43;;;4.95;;
39882;SDS011;55824;52.220;21.040;2023-01-26T13:35:00;7.28;;;5.30;;
39882;SDS011;55824;52.220;21.040;2023-01-26T13:39:59;7.82;;;5.68;;
39882;SDS011;55824;52.220;21.040;2023-01-26T13:42:28;8.20;;;5.93;;
39882;SDS011;55824;52.220;21.040;2023-01-26T13:45:05;8.02;;;5.50;;
39882;SDS011;55824;52.220;21.040;2023-01-26T13:47:34;8.35;;;5.72;;
39882;SDS011;55824;52.220;21.040;2023-01-26T13:50:20;11.00;;;5.70;;
39882;SDS011;55824;52.220;21.040;2023-01-26T13:52:46;7.20;;;5.88;;
39882;SDS011;55824;52.220;21.040;2023-01-26T13:55:18;7.20;;;5.60;;
39882;SDS011;55824;52.220;21.040;2023-01-26T13:57:47;7.68;;;5.93;;
39882;SDS011;55824;52.220;21.040;2023-01-26T14:00:13;7.78;;;6.30;;
39882;SDS011;55824;52.220;21.040;2023-01-26T14:02:39;9.82;;;6.30;;
39882;SDS011;55824;52.220;21.040;2023-01-26T14:05:06;8.65;;;6.28;;
39882;SDS011;55824;52.220;21.040;2023-01-26T14:07:39;8.02;;;6.30;;
39882;SDS011;55824;52.220;21.040;2023-01-26T14:10:06;11.52;;;7.82;;
39882;SDS011;55824;52.220;21.040;2023-01-26T14:12:33;12.10;;;8.35;;
39882;SDS011;55824;52.220;21.040;2023-01-26T14:15:04;17.58;;;10.25;;
39882;SDS011;55824;52.220;21.040;2023-01-26T14:17:35;15.60;;;8.80;;
39882;SDS011;55824;52.220;21.040;2023-01-26T14:20:01;15.60;;;9.00;;
39882;SDS011;55824;52.220;21.040;2023-01-26T14:22:28;13.82;;;8.77;;
39882;SDS011;55824;52.220;21.040;2023-01-26T14:24:56;15.13;;;8.82;;
39882;SDS011;55824;52.220;21.040;2023-01-26T14:29:48;11.32;;;8.43;;
39882;SDS011;55824;52.220;21.040;2023-01-26T14:32:14;14.05;;;9.27;;
39882;SDS011;55824;52.220;21.040;2023-01-26T14:34:50;13.35;;;10.15;;
39882;SDS011;55824;52.220;21.040;2023-01-26T14:37:16;11.23;;;8.32;;
39882;SDS011;55824;52.220;21.040;2023-01-26T14:39:43;14.43;;;8.93;;
39882;SDS011;55824;52.220;21.040;2023-01-26T14:42:15;13.65;;;8.40;;
39882;SDS011;55824;52.220;21.040;2023-01-26T14:44:42;11.75;;;8.88;;
39882;SDS011;55824;52.220;21.040;2023-01-26T14:47:21;12.55;;;8.52;;
39882;SDS011;55824;52.220;21.040;2023-01-26T14:52:27;13.77;;;8.73;;
39882;SDS011;55824;52.220;21.040;2023-01-26T14:54:55;13.70;;;9.27;;
39882;SDS011;55824;52.220;21.040;2023-01-26T14:57:23;15.07;;;9.38;;
39882;SDS011;55824;52.220;21.040;2023-01-26T14:59:52;15.02;;;9.40;;
39882;SDS011;55824;52.220;21.040;2023-01-26T15:02:19;18.02;;;9.95;;
39882;SDS011;55824;52.220;21.040;2023-01-26T15:05:09;14.75;;;10.13;;
39882;SDS011;55824;52.220;21.040;2023-01-26T15:07:33;14.60;;;9.75;;
39882;SDS011;55824;52.220;21.040;2023-01-26T15:09:59;14.63;;;10.10;;
39882;SDS011;55824;52.220;21.040;2023-01-26T15:12:26;14.02;;;9.70;;
39882;SDS011;55824;52.220;21.040;2023-01-26T15:14:56;19.67;;;9.75;;
39882;SDS011;55824;52.220;21.040;2023-01-26T15:20:01;17.27;;;9.27;;
39882;SDS011;55824;52.220;21.040;2023-01-26T15:22:27;15.20;;;9.75;;
39882;SDS011;55824;52.220;21.040;2023-01-26T15:25:00;13.15;;;8.77;;
39882;SDS011;55824;52.220;21.040;2023-01-26T15:27:33;16.27;;;9.50;;
39882;SDS011;55824;52.220;21.040;2023-01-26T15:30:00;12.60;;;8.65;;
39882;SDS011;55824;52.220;21.040;2023-01-26T15:32:27;14.90;;;9.48;;
39882;SDS011;55824;52.220;21.040;2023-01-26T15:35:04;11.82;;;8.77;;
39882;SDS011;55824;52.220;21.040;2023-01-26T15:37:32;12.63;;;8.65;;
39882;SDS011;55824;52.220;21.040;2023-01-26T15:40:00;12.53;;;8.70;;
39882;SDS011;55824;52.220;21.040;2023-01-26T15:42:26;12.57;;;9.00;;
39882;SDS011;55824;52.220;21.040;2023-01-26T15:44:54;13.77;;;7.65;;
39882;SDS011;55824;52.220;21.040;2023-01-26T15:47:20;11.27;;;7.80;;
39882;SDS011;55824;52.220;21.040;2023-01-26T15:49:46;10.70;;;7.32;;
39882;SDS011;55824;52.220;21.040;2023-01-26T15:52:16;11.30;;;7.45;;
39882;SDS011;55824;52.220;21.040;2023-01-26T15:54:42;12.85;;;7.53;;
39882;SDS011;55824;52.220;21.040;2023-01-26T15:57:09;11.60;;;7.90;;
39882;SDS011;55824;52.220;21.040;2023-01-26T15:59:36;13.20;;;8.27;;
39882;SDS011;55824;52.220;21.040;2023-01-26T16:02:02;11.88;;;8.02;;
39882;SDS011;55824;52.220;21.040;2023-01-26T16:04:28;14.50;;;7.88;;
39882;SDS011;55824;52.220;21.040;2023-01-26T16:06:54;10.73;;;6.63;;
39882;SDS011;55824;52.220;21.040;2023-01-26T16:09:20;12.65;;;7.57;;
39882;SDS011;55824;52.220;21.040;2023-01-26T16:11:46;11.05;;;7.45;;
39882;SDS011;55824;52.220;21.040;2023-01-26T16:14:13;11.30;;;7.03;;